Time;durP1;ratioP1;P1;durP2;ratioP2;P2;SDS_P1;SDS_P2;PMS_P1;PMS_P2;Temp;Humidity;BMP_temperature;BMP_pressure;BME280_temperature;BME280_humidity;BME280_pressure;Samples;Min_cycle;Max_cycle;Signal;HPM_P1;HPM_P2
2023/12/05 00:00:31;;;;;;;891.25;821.65;;;2.40;99.90;;;;;;5053241;28;20033;-85
2023/12/05 00:02:56;;;;;;;873.83;807.30;;;2.10;99.90;;;;;;5052080;28;20187;-85
2023/12/05 00:05:22;;;;;;;905.05;833.63;;;0.80;99.90;;;;;;5052402;28;20104;-85
2023/12/05 00:07:48;;;;;;;882.42;812.22;;;0.90;99.90;;;;;;5058743;28;20094;-86
2023/12/05 00:10:13;;;;;;;908.40;834.05;;;2.30;99.90;;;;;;5053491;28;20029;-85
2023/12/05 00:12:39;;;;;;;889.47;820.15;;;0.80;99.90;;;;;;5053010;28;20033;-86
2023/12/05 00:15:05;;;;;;;859.88;791.60;;;1.80;99.90;;;;;;5055039;28;20040;-85
2023/12/05 00:17:31;;;;;;;897.17;826.83;;;0.90;99.90;;;;;;5049054;28;20053;-85
2023/12/05 00:19:57;;;;;;;870.65;803.80;;;0.90;99.90;;;;;;5071101;28;20045;-85
2023/12/05 00:22:25;;;;;;;813.58;751.80;;;1.90;99.90;;;;;;5051606;28;20135;-85
2023/12/05 00:24:51;;;;;;;846.17;783.42;;;0.80;99.90;;;;;;5074061;28;20029;-85
2023/12/05 00:27:17;;;;;;;962.95;875.33;;;0.80;99.90;;;;;;5054187;28;20067;-86
2023/12/05 00:29:42;;;;;;;848.95;784.63;;;0.80;99.90;;;;;;5051135;28;20111;-85
2023/12/05 00:32:08;;;;;;;862.88;793.72;;;0.80;99.90;;;;;;5072293;28;20090;-85
2023/12/05 00:34:34;;;;;;;797.85;738.63;;;1.50;99.90;;;;;;5054730;28;20041;-86
2023/12/05 00:36:59;;;;;;;815.67;754.47;;;0.80;99.90;;;;;;5057050;28;20033;-85
2023/12/05 00:39:25;;;;;;;861.33;794.72;;;1.00;99.90;;;;;;5057147;28;20029;-86
2023/12/05 00:41:51;;;;;;;834.70;770.58;;;0.70;99.90;;;;;;5072149;28;20111;-85
2023/12/05 00:44:20;;;;;;;842.22;778.03;;;0.70;99.90;;;;;;5073478;28;20025;-85
2023/12/05 00:46:46;;;;;;;822.85;759.83;;;0.70;99.90;;;;;;5048414;28;20044;-85
2023/12/05 00:49:12;;;;;;;862.20;794.72;;;0.80;99.90;;;;;;5081917;28;20037;-85
2023/12/05 00:51:37;;;;;;;868.20;801.78;;;0.80;99.90;;;;;;5062227;28;20033;-85
2023/12/05 00:54:03;;;;;;;858.83;792.97;;;0.80;99.90;;;;;;5066631;28;20033;-85
2023/12/05 00:56:29;;;;;;;881.10;812.42;;;0.70;99.90;;;;;;5056532;28;20047;-85
2023/12/05 00:58:54;;;;;;;865.38;797.85;;;0.70;99.90;;;;;;5048022;28;20124;-85
2023/12/05 01:01:20;;;;;;;872.40;804.03;;;0.70;99.90;;;;;;5048236;28;21384;-85
2023/12/05 01:03:46;;;;;;;871.25;801.75;;;0.70;99.90;;;;;;5061261;28;20378;-85
2023/12/05 01:06:11;;;;;;;842.65;776.38;;;1.10;99.90;;;;;;5049285;28;20037;-85
2023/12/05 01:08:37;;;;;;;894.17;824.38;;;0.70;99.90;;;;;;5046588;28;20041;-85
2023/12/05 01:11:03;;;;;;;761.13;704.88;;;0.60;99.90;;;;;;5042384;28;20040;-85
2023/12/05 01:13:28;;;;;;;859.15;792.28;;;0.70;99.90;;;;;;5050145;28;20055;-85
2023/12/05 01:15:54;;;;;;;882.47;810.10;;;0.60;99.90;;;;;;5051687;28;20037;-86
2023/12/05 01:18:20;;;;;;;865.33;798.63;;;0.60;99.90;;;;;;5053260;28;20087;-86
2023/12/05 01:20:45;;;;;;;894.10;824.17;;;1.70;99.90;;;;;;5071035;28;20044;-86
2023/12/05 01:23:13;;;;;;;867.58;800.67;;;0.60;99.90;;;;;;5056967;28;20071;-86
2023/12/05 01:25:38;;;;;;;828.45;765.63;;;0.60;99.90;;;;;;5048045;28;20421;-86
2023/12/05 01:28:04;;;;;;;865.63;796.78;;;0.60;99.90;;;;;;5047765;28;20052;-86
2023/12/05 01:30:30;;;;;;;916.65;844.28;;;1.20;99.90;;;;;;5063527;28;20047;-86
2023/12/05 01:32:55;;;;;;;816.67;756.08;;;0.60;99.90;;;;;;5058827;28;20531;-86
2023/12/05 01:35:21;;;;;;;879.08;809.92;;;0.60;99.90;;;;;;5045222;28;20055;-85
2023/12/05 01:37:48;;;;;;;865.97;797.38;;;0.60;99.90;;;;;;5043075;28;20063;-85
2023/12/05 01:40:13;;;;;;;811.78;750.42;;;0.80;99.90;;;;;;5046964;28;20037;-86
2023/12/05 01:42:39;;;;;;;892.28;820.38;;;0.60;99.90;;;;;;5044276;28;20117;-86
2023/12/05 01:45:06;;;;;;;888.30;818.40;;;0.60;99.90;;;;;;5044698;28;20123;-86
2023/12/05 01:47:35;;;;;;;896.75;827.63;;;0.60;99.90;;;;;;5062747;28;20036;-86
2023/12/05 01:50:03;;;;;;;904.70;832.05;;;0.60;99.90;;;;;;5042405;28;20041;-86
2023/12/05 01:52:30;;;;;;;877.45;807.50;;;0.60;99.90;;;;;;5047116;28;20067;-86
2023/12/05 01:54:56;;;;;;;874.83;803.00;;;0.60;99.90;;;;;;5044371;28;20131;-86
2023/12/05 01:57:24;;;;;;;873.30;805.22;;;2.00;99.90;;;;;;5063135;28;20083;-85
2023/12/05 01:59:52;;;;;;;869.88;802.40;;;1.50;99.90;;;;;;5044933;28;20409;-86
2023/12/05 02:02:18;;;;;;;852.63;786.13;;;1.10;99.90;;;;;;5046175;28;20171;-86
2023/12/05 02:04:44;;;;;;;812.03;749.72;;;0.50;99.90;;;;;;5063663;28;20131;-86
2023/12/05 02:07:11;;;;;;;856.88;788.20;;;0.50;99.90;;;;;;5043063;28;20279;-86
2023/12/05 02:09:37;;;;;;;834.88;767.30;;;1.60;99.90;;;;;;5045411;28;22262;-86
2023/12/05 02:12:04;;;;;;;887.10;815.05;;;0.60;99.90;;;;;;5025378;28;20048;-86
2023/12/05 02:14:32;;;;;;;911.28;838.72;;;0.50;99.90;;;;;;5046214;28;20028;-86
2023/12/05 02:17:12;;;;;;;870.03;801.05;;;1.60;99.90;;;;;;5043298;28;20194;-86
2023/12/05 02:19:48;;;;;;;854.17;787.90;;;0.50;99.90;;;;;;5043183;28;20048;-86
2023/12/05 02:22:26;;;;;;;941.67;863.55;;;0.40;99.90;;;;;;5054689;28;20037;-86
2023/12/05 02:25:45;;;;;;;823.17;759.15;;;0.40;99.90;;;;;;5055989;28;20041;-87
2023/12/05 02:28:11;;;;;;;891.08;816.22;;;0.40;99.90;;;;;;4988394;28;20045;-87
2023/12/05 02:30:37;;;;;;;888.40;817.95;;;0.40;99.90;;;;;;4996967;28;20107;-87
2023/12/05 02:33:02;;;;;;;929.25;849.95;;;1.60;99.90;;;;;;5015412;28;20044;-87
2023/12/05 02:35:29;;;;;;;877.58;807.35;;;0.40;99.90;;;;;;5040285;28;20040;-87
2023/12/05 02:38:18;;;;;;;902.33;829.42;;;0.40;99.90;;;;;;5044994;28;20032;-87
2023/12/05 02:41:20;;;;;;;941.95;864.25;;;0.40;99.90;;;;;;5061528;28;20036;-87
2023/12/05 02:43:57;;;;;;;930.63;852.88;;;0.40;99.90;;;;;;5034463;28;20048;-87
2023/12/05 02:46:24;;;;;;;923.25;845.80;;;0.40;99.90;;;;;;5059887;28;20051;-87
2023/12/05 02:48:50;;;;;;;905.40;831.65;;;0.40;99.90;;;;;;5068605;28;20032;-87
2023/12/05 02:51:17;;;;;;;866.28;795.33;;;1.60;99.90;;;;;;5066068;28;20024;-87
2023/12/05 02:53:42;;;;;;;842.97;776.08;;;0.80;99.90;;;;;;5049028;28;20025;-87
2023/12/05 02:56:08;;;;;;;856.92;786.25;;;0.30;99.90;;;;;;5060636;28;20493;-87
2023/12/05 02:58:34;;;;;;;912.33;836.65;;;0.40;99.90;;;;;;5056698;28;20058;-87
2023/12/05 03:01:01;;;;;;;907.65;831.42;;;0.30;99.90;;;;;;5041144;28;20425;-86
2023/12/05 03:03:27;;;;;;;881.45;807.95;;;0.30;99.90;;;;;;5044717;28;20036;-86
2023/12/05 03:05:52;;;;;;;933.50;856.63;;;0.30;99.90;;;;;;5041738;28;20043;-86
2023/12/05 03:08:18;;;;;;;907.72;834.15;;;0.50;99.90;;;;;;5041928;28;20037;-86
2023/12/05 03:10:43;;;;;;;825.63;761.15;;;0.30;99.90;;;;;;5045078;28;20045;-86
2023/12/05 03:13:09;;;;;;;850.10;779.70;;;0.30;99.90;;;;;;5043913;28;20492;-86
2023/12/05 03:15:34;;;;;;;772.42;711.47;;;0.20;99.90;;;;;;5039134;28;20045;-85
2023/12/05 03:18:00;;;;;;;895.55;823.72;;;1.50;99.90;;;;;;5045340;28;20116;-86
2023/12/05 03:20:26;;;;;;;885.67;815.53;;;0.30;99.90;;;;;;5041979;28;20128;-86
2023/12/05 03:22:51;;;;;;;930.75;853.88;;;0.20;99.90;;;;;;5058692;28;20029;-86
2023/12/05 03:25:17;;;;;;;906.00;833.50;;;0.20;99.90;;;;;;5044549;28;20033;-86
2023/12/05 03:27:42;;;;;;;882.50;812.40;;;0.30;99.90;;;;;;5074802;28;20091;-86
2023/12/05 03:30:09;;;;;;;915.28;840.78;;;0.30;99.90;;;;;;5045510;28;20037;-86
2023/12/05 03:32:34;;;;;;;881.47;811.35;;;0.30;99.90;;;;;;5044447;28;20036;-86
2023/12/05 03:35:00;;;;;;;900.97;830.50;;;0.30;99.90;;;;;;5025297;28;20490;-86
2023/12/05 03:37:26;;;;;;;891.88;820.92;;;1.40;99.90;;;;;;5058486;28;20041;-85
2023/12/05 03:39:51;;;;;;;821.05;757.83;;;1.10;99.90;;;;;;5042434;28;20123;-85
2023/12/05 03:42:17;;;;;;;858.40;790.42;;;0.30;99.90;;;;;;5045495;28;20039;-85
2023/12/05 03:44:42;;;;;;;891.65;820.58;;;0.30;99.90;;;;;;5042707;28;20029;-85
2023/12/05 03:47:08;;;;;;;848.33;781.55;;;0.30;99.90;;;;;;5041624;28;20558;-85
2023/12/05 03:49:34;;;;;;;866.92;797.30;;;0.30;99.90;;;;;;5046202;28;20041;-85
2023/12/05 03:52:01;;;;;;;859.67;793.70;;;0.30;99.90;;;;;;5060462;28;20044;-86
2023/12/05 03:54:27;;;;;;;920.17;843.85;;;0.30;99.90;;;;;;5041538;28;20071;-86
2023/12/05 03:56:53;;;;;;;896.70;824.80;;;0.30;99.90;;;;;;5045912;28;20047;-86
2023/12/05 03:59:18;;;;;;;926.88;850.83;;;0.30;99.90;;;;;;5043878;28;20036;-86
2023/12/05 04:01:44;;;;;;;895.63;823.42;;;0.30;99.90;;;;;;5044722;28;20033;-86
2023/12/05 04:04:10;;;;;;;857.15;789.80;;;1.60;99.90;;;;;;5060075;28;20032;-86
2023/12/05 04:06:35;;;;;;;884.65;812.50;;;0.30;99.90;;;;;;5036954;28;20040;-86
2023/12/05 04:09:01;;;;;;;916.50;842.78;;;0.40;99.90;;;;;;5044795;28;20035;-86
2023/12/05 04:11:31;;;;;;;839.20;773.97;;;0.30;99.90;;;;;;5057783;28;20451;-87
2023/12/05 04:13:57;;;;;;;820.10;756.70;;;0.40;99.90;;;;;;5060154;28;20033;-87
2023/12/05 04:16:24;;;;;;;911.47;838.35;;;0.30;99.90;;;;;;5039914;28;20054;-87
2023/12/05 04:18:49;;;;;;;914.50;836.85;;;0.30;99.90;;;;;;5042166;28;20068;-86
2023/12/05 04:21:18;;;;;;;837.63;770.45;;;1.50;99.90;;;;;;5041843;28;20040;-87
2023/12/05 04:23:44;;;;;;;916.03;838.92;;;0.30;99.90;;;;;;5044461;28;20040;-87
2023/12/05 04:26:20;;;;;;;923.25;845.42;;;0.30;99.90;;;;;;5044462;28;20032;-86
2023/12/05 04:28:46;;;;;;;912.25;838.70;;;0.40;99.90;;;;;;5045239;28;20029;-86
2023/12/05 04:31:13;;;;;;;893.33;820.70;;;0.30;99.90;;;;;;5043555;28;20037;-86
2023/12/05 04:33:39;;;;;;;883.10;809.28;;;0.40;99.90;;;;;;5049129;28;20036;-86
2023/12/05 04:36:05;;;;;;;906.15;832.88;;;0.40;99.90;;;;;;5036405;28;20037;-86
2023/12/05 04:38:32;;;;;;;866.92;799.60;;;0.40;99.90;;;;;;5057503;28;20040;-86
2023/12/05 04:40:58;;;;;;;853.85;784.65;;;1.80;99.90;;;;;;5046365;28;20029;-86
2023/12/05 04:43:24;;;;;;;886.65;813.95;;;1.00;99.90;;;;;;5048204;28;20508;-87
2023/12/05 04:45:49;;;;;;;889.05;818.65;;;1.80;99.90;;;;;;5063797;28;20036;-86
2023/12/05 04:48:16;;;;;;;890.90;820.47;;;1.70;99.90;;;;;;5051051;28;20028;-87
2023/12/05 04:50:43;;;;;;;915.33;841.50;;;0.40;99.90;;;;;;5060302;28;20080;-87
2023/12/05 04:53:08;;;;;;;872.22;803.53;;;0.40;99.90;;;;;;5078294;28;20044;-87
2023/12/05 04:55:34;;;;;;;924.25;839.85;;;0.40;99.90;;;;;;5044511;28;20481;-86
2023/12/05 04:57:59;;;;;;;813.40;750.53;;;0.30;99.90;;;;;;5041269;28;20039;-86
2023/12/05 05:00:25;;;;;;;859.15;790.03;;;0.40;99.90;;;;;;5046243;28;20037;-86
2023/12/05 05:02:53;;;;;;;858.40;790.38;;;0.40;99.90;;;;;;5040816;28;20489;-86
2023/12/05 05:05:18;;;;;;;864.08;794.40;;;0.80;99.90;;;;;;5064051;28;20487;-86
2023/12/05 05:07:44;;;;;;;895.83;822.47;;;0.40;99.90;;;;;;5040692;28;20191;-86
2023/12/05 05:10:10;;;;;;;864.78;794.72;;;1.20;99.90;;;;;;5049697;28;20404;-86
2023/12/05 05:12:35;;;;;;;880.67;811.45;;;1.20;99.90;;;;;;5060091;28;20044;-87
2023/12/05 05:15:01;;;;;;;907.30;832.58;;;0.40;99.90;;;;;;5045855;28;20037;-87
2023/12/05 05:17:28;;;;;;;906.88;834.40;;;0.40;99.90;;;;;;5041103;28;20056;-87
2023/12/05 05:19:54;;;;;;;892.80;820.97;;;0.60;99.90;;;;;;5044844;28;20036;-87
2023/12/05 05:22:19;;;;;;;876.75;806.92;;;0.40;99.90;;;;;;5044051;28;20043;-87
2023/12/05 05:24:45;;;;;;;877.22;807.78;;;0.40;99.90;;;;;;5044524;28;20047;-87
2023/12/05 05:27:11;;;;;;;914.03;838.67;;;1.80;99.90;;;;;;5057127;28;20449;-87
2023/12/05 05:29:37;;;;;;;927.08;849.30;;;1.50;99.90;;;;;;5061476;28;20074;-87
2023/12/05 05:32:03;;;;;;;897.20;824.28;;;1.10;99.90;;;;;;5045181;28;20040;-86
2023/12/05 05:34:29;;;;;;;939.15;861.85;;;0.40;99.90;;;;;;5045929;28;20068;-87
2023/12/05 05:36:54;;;;;;;880.85;808.35;;;1.20;99.90;;;;;;5043831;28;20071;-87
2023/12/05 05:39:20;;;;;;;893.47;821.42;;;0.40;99.90;;;;;;5059706;28;20025;-87
2023/12/05 05:41:46;;;;;;;914.45;839.08;;;0.40;99.90;;;;;;5060101;28;20094;-87
2023/12/05 05:44:12;;;;;;;892.90;818.03;;;0.40;99.90;;;;;;5046166;28;20429;-87
2023/12/05 05:46:37;;;;;;;893.95;819.35;;;0.40;99.90;;;;;;5042783;28;20507;-86
2023/12/05 05:49:03;;;;;;;914.17;837.75;;;0.40;99.90;;;;;;5047188;28;20043;-86
2023/12/05 05:51:28;;;;;;;882.28;813.35;;;0.90;99.90;;;;;;5045129;28;20610;-86
2023/12/05 05:53:55;;;;;;;882.35;811.78;;;0.40;99.90;;;;;;5042988;28;20044;-87
2023/12/05 05:56:22;;;;;;;880.92;811.58;;;1.70;99.90;;;;;;5040942;28;20059;-87
2023/12/05 05:58:47;;;;;;;901.72;828.95;;;0.40;99.90;;;;;;5046521;28;20036;-87
2023/12/05 06:01:13;;;;;;;904.30;830.45;;;0.40;99.90;;;;;;5059656;28;20054;-87
2023/12/05 06:03:40;;;;;;;888.50;818.50;;;1.40;99.90;;;;;;5041104;28;20033;-87
2023/12/05 06:06:06;;;;;;;895.08;822.60;;;0.50;99.90;;;;;;5044141;28;20110;-86
2023/12/05 06:08:32;;;;;;;855.80;787.83;;;0.40;99.90;;;;;;5059163;28;20051;-87
2023/12/05 06:10:57;;;;;;;859.00;790.10;;;0.40;99.90;;;;;;5062383;28;20115;-87
2023/12/05 06:13:23;;;;;;;901.55;827.97;;;0.40;99.90;;;;;;5041719;28;20036;-87
2023/12/05 06:15:49;;;;;;;885.75;814.72;;;0.40;99.90;;;;;;5061461;28;20040;-86
2023/12/05 06:18:17;;;;;;;869.15;800.35;;;0.40;99.90;;;;;;5057215;28;20052;-86
2023/12/05 06:20:43;;;;;;;899.80;827.35;;;0.40;99.90;;;;;;5076539;28;20099;-86
2023/12/05 06:23:09;;;;;;;906.35;832.92;;;0.40;99.90;;;;;;5059863;28;20115;-86
2023/12/05 06:25:35;;;;;;;910.90;837.70;;;1.40;99.90;;;;;;5077849;28;20064;-87
2023/12/05 06:28:01;;;;;;;903.22;830.42;;;0.20;99.90;;;;;;5075605;28;20033;-87
2023/12/05 06:30:28;;;;;;;836.72;771.25;;;1.30;99.90;;;;;;5062458;28;20044;-87
2023/12/05 06:32:54;;;;;;;887.38;816.67;;;1.20;99.90;;;;;;5071341;28;20052;-87
2023/12/05 06:35:20;;;;;;;879.58;809.40;;;1.40;99.90;;;;;;5078119;28;20067;-87
2023/12/05 06:37:52;;;;;;;794.22;733.80;;;0.40;99.90;;;;;;5076170;28;20120;-87
2023/12/05 06:40:18;;;;;;;868.22;800.03;;;2.00;99.90;;;;;;5057489;28;20033;-87
2023/12/05 06:42:44;;;;;;;911.33;836.92;;;0.60;99.90;;;;;;5078043;28;20096;-86
2023/12/05 06:45:10;;;;;;;877.03;807.45;;;0.40;99.90;;;;;;5055992;28;20132;-87
2023/12/05 06:47:37;;;;;;;903.78;829.55;;;1.30;99.90;;;;;;5060642;28;20028;-87
2023/12/05 06:50:10;;;;;;;859.97;791.58;;;1.60;99.90;;;;;;5064674;28;20068;-86
2023/12/05 06:52:36;;;;;;;870.80;801.47;;;0.40;99.90;;;;;;5058590;28;20033;-86
2023/12/05 06:55:01;;;;;;;903.05;829.78;;;0.80;99.90;;;;;;5078396;28;20040;-87
2023/12/05 06:57:27;;;;;;;892.92;821.63;;;0.40;99.90;;;;;;5053723;28;20181;-86
2023/12/05 06:59:53;;;;;;;876.05;807.05;;;0.70;99.90;;;;;;5062274;28;20033;-86
2023/12/05 07:02:19;;;;;;;874.92;804.35;;;0.90;99.90;;;;;;5064247;28;20071;-86
2023/12/05 07:04:44;;;;;;;904.30;830.00;;;0.90;99.90;;;;;;5060195;28;20041;-87
2023/12/05 07:07:10;;;;;;;860.15;793.60;;;0.30;99.90;;;;;;5060332;28;20105;-86
2023/12/05 07:09:36;;;;;;;874.70;806.67;;;1.50;99.90;;;;;;5061957;28;20042;-86
2023/12/05 07:12:01;;;;;;;860.28;790.10;;;1.10;99.90;;;;;;5061960;28;20470;-87
2023/12/05 07:14:27;;;;;;;870.85;802.72;;;1.50;99.90;;;;;;5060890;28;20054;-86
2023/12/05 07:16:53;;;;;;;879.72;809.38;;;1.60;99.90;;;;;;5041653;28;20040;-86
2023/12/05 07:19:19;;;;;;;890.75;817.83;;;1.40;99.90;;;;;;5056079;28;20037;-86
2023/12/05 07:21:44;;;;;;;892.03;820.35;;;0.40;99.90;;;;;;5062549;28;20037;-86
2023/12/05 07:24:10;;;;;;;877.30;807.35;;;1.90;99.90;;;;;;5061382;28;20040;-86
2023/12/05 07:26:39;;;;;;;879.20;809.58;;;1.00;99.90;;;;;;5079178;28;20049;-86
2023/12/05 07:29:05;;;;;;;862.25;794.22;;;1.90;99.90;;;;;;5057531;28;20040;-87
2023/12/05 07:31:31;;;;;;;895.00;822.33;;;0.60;99.90;;;;;;5060982;28;20051;-85
2023/12/05 07:33:57;;;;;;;886.28;816.60;;;1.80;99.90;;;;;;5058039;28;20051;-86
2023/12/05 07:36:24;;;;;;;865.88;796.35;;;-0.10;99.90;;;;;;5078441;28;20082;-86
2023/12/05 07:38:50;;;;;;;887.35;816.22;;;1.30;99.90;;;;;;5056964;28;20032;-86
2023/12/05 07:41:20;;;;;;;844.65;778.75;;;0.40;99.90;;;;;;5057813;28;20051;-86
2023/12/05 07:43:46;;;;;;;858.08;792.05;;;0.40;99.90;;;;;;5059064;28;20143;-87
2023/12/05 07:46:12;;;;;;;865.33;797.67;;;0.30;99.90;;;;;;5061065;28;20119;-86
2023/12/05 07:48:37;;;;;;;891.30;818.17;;;-0.10;99.90;;;;;;5058086;28;20037;-86
2023/12/05 07:51:03;;;;;;;866.25;797.17;;;1.10;99.90;;;;;;5065598;28;20036;-86
2023/12/05 07:53:29;;;;;;;869.25;801.30;;;0.30;99.90;;;;;;5075755;28;20036;-85
2023/12/05 07:55:55;;;;;;;892.20;820.08;;;1.70;99.90;;;;;;5063716;28;20075;-86
2023/12/05 07:58:20;;;;;;;817.50;754.53;;;0.90;99.90;;;;;;5059771;28;20090;-86
2023/12/05 08:00:46;;;;;;;898.92;823.25;;;1.20;99.90;;;;;;5061376;28;20130;-86
2023/12/05 08:03:14;;;;;;;905.60;830.30;;;1.30;99.90;;;;;;5069757;28;20033;-86
2023/12/05 08:05:40;;;;;;;893.63;820.50;;;0.70;99.90;;;;;;5061014;28;20044;-85
2023/12/05 08:08:06;;;;;;;865.65;794.90;;;1.40;99.90;;;;;;5061675;28;20037;-86
2023/12/05 08:10:31;;;;;;;882.42;813.13;;;1.60;99.90;;;;;;5066287;28;20056;-85
2023/12/05 08:12:57;;;;;;;889.17;816.50;;;1.70;99.90;;;;;;5067798;28;20045;-86
2023/12/05 08:15:23;;;;;;;839.40;773.65;;;1.20;99.90;;;;;;5055674;28;20032;-86
2023/12/05 08:17:49;;;;;;;881.67;811.03;;;-0.10;99.90;;;;;;5075226;28;20061;-86
2023/12/05 08:20:15;;;;;;;876.85;808.88;;;1.20;99.90;;;;;;5073880;28;20037;-86
2023/12/05 08:22:43;;;;;;;869.35;800.22;;;0.50;99.90;;;;;;5077695;28;20040;-86
2023/12/05 08:25:10;;;;;;;856.72;790.20;;;1.30;99.90;;;;;;5060987;28;20033;-86
2023/12/05 08:27:36;;;;;;;861.10;794.45;;;0.10;99.90;;;;;;5058072;28;20052;-86
2023/12/05 08:30:02;;;;;;;833.75;769.97;;;0.50;99.90;;;;;;5063477;28;20037;-86
2023/12/05 08:32:28;;;;;;;796.20;733.50;;;0.50;99.90;;;;;;5074391;28;20037;-85
2023/12/05 08:34:54;;;;;;;823.70;759.10;;;1.30;99.90;;;;;;5053881;28;20039;-86
2023/12/05 08:37:20;;;;;;;841.50;777.47;;;1.40;99.90;;;;;;5067890;28;20036;-86
2023/12/05 08:39:46;;;;;;;859.53;792.28;;;0.90;99.90;;;;;;5060798;28;20036;-85
2023/12/05 08:42:12;;;;;;;839.05;775.05;;;1.50;99.90;;;;;;5064600;28;20060;-85
2023/12/05 08:44:37;;;;;;;844.10;779.00;;;2.20;99.90;;;;;;5064917;28;20041;-85
2023/12/05 08:47:03;;;;;;;842.22;775.92;;;2.10;99.90;;;;;;5062754;28;20060;-86
2023/12/05 08:49:30;;;;;;;842.55;778.03;;;0.60;99.90;;;;;;5066816;28;20039;-85
2023/12/05 08:51:55;;;;;;;863.25;795.97;;;2.00;99.90;;;;;;5061239;28;20039;-85
2023/12/05 08:54:21;;;;;;;832.75;769.15;;;1.00;99.90;;;;;;5068508;28;20041;-85
2023/12/05 08:56:47;;;;;;;804.47;742.10;;;2.20;99.90;;;;;;5088421;28;20141;-85
2023/12/05 08:59:13;;;;;;;827.55;764.10;;;1.50;99.90;;;;;;5056054;28;20044;-85
2023/12/05 09:01:39;;;;;;;781.72;723.63;;;1.60;99.90;;;;;;5080969;28;20063;-85
2023/12/05 09:04:04;;;;;;;822.58;758.15;;;1.40;99.90;;;;;;5061394;28;20127;-85
2023/12/05 09:06:31;;;;;;;802.03;742.42;;;1.30;99.90;;;;;;5060043;28;20053;-86
2023/12/05 09:08:57;;;;;;;777.53;718.65;;;1.90;99.90;;;;;;5062997;28;20037;-85
2023/12/05 09:11:23;;;;;;;726.95;673.92;;;1.20;99.90;;;;;;5063711;28;20052;-85
2023/12/05 09:13:49;;;;;;;817.05;754.97;;;1.60;99.90;;;;;;5067904;28;20036;-85
2023/12/05 09:16:15;;;;;;;818.28;756.08;;;2.30;99.90;;;;;;5060605;28;20057;-85
2023/12/05 09:18:41;;;;;;;784.25;725.05;;;1.70;99.90;;;;;;5066170;28;20135;-85
2023/12/05 09:21:08;;;;;;;795.67;735.67;;;2.30;99.90;;;;;;5063840;28;20033;-84
2023/12/05 09:23:34;;;;;;;821.60;758.72;;;0.60;99.90;;;;;;5060684;28;20060;-84
2023/12/05 09:26:00;;;;;;;777.55;719.35;;;0.70;99.90;;;;;;5078462;28;20040;-84
2023/12/05 09:28:25;;;;;;;795.90;735.55;;;0.70;99.90;;;;;;5062645;28;20075;-85
2023/12/05 09:30:51;;;;;;;794.13;734.92;;;0.10;99.90;;;;;;5060315;28;20409;-85
2023/12/05 09:33:17;;;;;;;818.45;755.88;;;2.40;99.90;;;;;;5083434;28;20044;-85
2023/12/05 09:35:43;;;;;;;810.67;749.00;;;1.90;99.90;;;;;;5068446;28;20520;-85
2023/12/05 09:38:09;;;;;;;782.15;721.10;;;0.80;99.90;;;;;;5064856;28;20037;-85
2023/12/05 09:40:35;;;;;;;827.75;763.92;;;2.30;99.90;;;;;;5058879;28;20052;-85
2023/12/05 09:43:04;;;;;;;794.40;732.58;;;1.80;99.90;;;;;;5062702;28;20037;-86
2023/12/05 09:45:39;;;;;;;804.88;743.38;;;0.60;99.90;;;;;;5065246;28;20060;-85
2023/12/05 09:48:08;;;;;;;784.35;723.83;;;0.20;99.90;;;;;;5076376;28;20071;-85
2023/12/05 09:50:36;;;;;;;803.40;742.95;;;1.70;99.90;;;;;;5058425;28;20044;-84
2023/12/05 09:53:04;;;;;;;806.80;745.58;;;0.80;99.90;;;;;;5053900;28;20041;-84
2023/12/05 09:55:31;;;;;;;788.05;729.03;;;1.40;99.90;;;;;;5062138;28;20044;-84
2023/12/05 09:57:57;;;;;;;790.53;731.17;;;2.50;99.90;;;;;;5058438;28;20043;-85
2023/12/05 10:00:26;;;;;;;793.15;733.83;;;2.50;99.90;;;;;;5058207;28;20029;-84
2023/12/05 10:02:54;;;;;;;830.25;764.45;;;2.00;99.90;;;;;;5064278;28;20029;-86
2023/12/05 10:05:20;;;;;;;782.92;723.67;;;2.00;99.90;;;;;;5055373;28;20033;-85
2023/12/05 10:07:47;;;;;;;777.05;717.38;;;1.70;99.90;;;;;;5054697;28;20045;-84
2023/12/05 10:10:15;;;;;;;770.42;711.40;;;1.50;99.90;;;;;;5061461;28;20040;-85
2023/12/05 10:12:41;;;;;;;774.50;715.78;;;1.30;99.90;;;;;;5060301;28;20044;-85
2023/12/05 10:15:08;;;;;;;764.08;706.33;;;2.40;99.90;;;;;;5057934;28;20051;-84
2023/12/05 10:17:35;;;;;;;784.75;725.90;;;0.90;99.90;;;;;;5057167;28;20048;-84
2023/12/05 10:20:01;;;;;;;776.17;716.17;;;1.00;99.90;;;;;;5053884;28;20119;-84
2023/12/05 10:22:26;;;;;;;737.00;679.88;;;1.00;99.90;;;;;;5060242;28;20032;-83
2023/12/05 10:24:55;;;;;;;738.17;681.50;;;1.10;99.90;;;;;;5079362;28;20044;-83
2023/12/05 10:27:21;;;;;;;739.95;682.85;;;2.20;99.90;;;;;;5060120;28;20098;-83
2023/12/05 10:29:46;;;;;;;740.58;685.40;;;1.10;99.90;;;;;;5059214;28;20560;-83
2023/12/05 10:32:13;;;;;;;757.53;699.58;;;2.70;99.90;;;;;;5062759;28;20041;-83
2023/12/05 10:34:50;;;;;;;748.80;692.50;;;1.90;99.90;;;;;;5060810;28;20251;-83
2023/12/05 10:37:27;;;;;;;735.92;679.00;;;2.60;99.90;;;;;;5095435;28;20072;-83
2023/12/05 10:39:55;;;;;;;751.28;693.45;;;1.20;99.90;;;;;;5072217;28;20045;-83
2023/12/05 10:42:26;;;;;;;724.60;669.47;;;2.10;99.90;;;;;;5059458;28;20044;-83
2023/12/05 10:44:52;;;;;;;742.28;684.40;;;1.10;99.90;;;;;;5057283;28;20033;-83
2023/12/05 10:47:17;;;;;;;765.17;703.25;;;1.10;99.90;;;;;;5063354;28;20511;-83
2023/12/05 10:49:43;;;;;;;755.08;694.65;;;2.50;99.90;;;;;;5056793;28;20037;-83
2023/12/05 10:52:13;;;;;;;748.95;690.50;;;2.50;99.90;;;;;;5061318;28;20039;-83
2023/12/05 10:54:39;;;;;;;735.47;677.92;;;1.80;99.90;;;;;;5056071;28;20069;-83
2023/12/05 10:57:09;;;;;;;728.95;672.10;;;1.10;99.90;;;;;;5074831;28;20060;-83
2023/12/05 10:59:36;;;;;;;754.78;694.97;;;1.10;99.90;;;;;;5056607;28;20108;-83
2023/12/05 11:02:13;;;;;;;745.88;688.05;;;1.10;99.90;;;;;;5058016;28;20039;-84
2023/12/05 11:04:41;;;;;;;740.95;683.78;;;1.10;99.90;;;;;;5057572;28;20039;-83
2023/12/05 11:07:10;;;;;;;742.78;685.13;;;0.40;99.90;;;;;;5054032;28;20037;-83
2023/12/05 11:09:40;;;;;;;739.97;682.08;;;1.10;99.90;;;;;;5068126;28;20043;-83
2023/12/05 11:12:08;;;;;;;750.45;691.50;;;1.30;99.90;;;;;;5059760;28;20048;-84
2023/12/05 11:14:37;;;;;;;757.05;697.97;;;1.30;99.90;;;;;;5058494;28;20052;-83
2023/12/05 11:17:08;;;;;;;825.42;754.03;;;2.60;99.90;;;;;;5062029;28;20044;-83
2023/12/05 11:19:51;;;;;;;788.75;725.15;;;1.30;99.90;;;;;;5069903;28;20056;-83
2023/12/05 11:22:26;;;;;;;783.95;719.33;;;1.30;99.90;;;;;;5063865;28;20036;-83
2023/12/05 11:25:43;;;;;;;762.80;704.55;;;1.30;99.90;;;;;;5060658;28;20037;-85
2023/12/05 11:28:21;;;;;;;789.80;727.30;;;1.30;99.90;;;;;;5043997;28;20060;-84
2023/12/05 11:31:14;;;;;;;783.60;720.90;;;1.20;99.90;;;;;;5054018;28;20049;-84
2023/12/05 11:33:52;;;;;;;796.83;732.83;;;1.10;99.90;;;;;;5056844;28;20029;-85
2023/12/05 11:36:39;;;;;;;768.10;706.28;;;1.00;99.90;;;;;;5061434;28;20044;-84
2023/12/05 11:39:06;;;;;;;737.63;680.85;;;1.10;99.90;;;;;;5068722;28;20093;-83
2023/12/05 11:41:31;;;;;;;748.13;689.75;;;1.90;99.90;;;;;;5062585;28;20044;-83
2023/12/05 11:44:12;;;;;;;745.15;687.58;;;0.90;99.90;;;;;;5061466;28;20070;-84
2023/12/05 11:46:45;;;;;;;728.40;671.88;;;1.10;99.90;;;;;;5060017;28;20083;-84
2023/12/05 11:49:13;;;;;;;748.67;693.10;;;1.10;99.90;;;;;;5064868;28;20040;-84
2023/12/05 11:51:38;;;;;;;732.25;675.15;;;1.60;99.90;;;;;;5063618;28;20040;-84
2023/12/05 11:54:07;;;;;;;728.97;672.53;;;1.60;99.90;;;;;;5061589;28;20036;-84
2023/12/05 11:56:33;;;;;;;731.50;675.00;;;1.10;99.90;;;;;;5064472;28;20051;-84
2023/12/05 11:59:13;;;;;;;724.25;668.65;;;1.10;99.90;;;;;;5057715;28;20045;-84
2023/12/05 12:01:43;;;;;;;723.00;666.70;;;1.20;99.90;;;;;;5063891;28;20037;-84
2023/12/05 12:04:22;;;;;;;715.47;660.95;;;1.70;99.90;;;;;;5080739;28;20063;-84
2023/12/05 12:06:51;;;;;;;753.05;693.63;;;2.20;99.90;;;;;;5060738;28;20045;-85
2023/12/05 12:09:16;;;;;;;751.30;692.83;;;2.30;99.90;;;;;;5064146;28;20064;-84
2023/12/05 12:11:43;;;;;;;740.45;683.33;;;1.10;99.90;;;;;;5061295;28;20405;-84
2023/12/05 12:14:16;;;;;;;751.25;692.75;;;1.30;99.90;;;;;;5062859;28;20032;-84
2023/12/05 12:16:43;;;;;;;759.17;698.88;;;1.00;99.90;;;;;;5059219;28;20070;-86
2023/12/05 12:19:11;;;;;;;757.17;697.20;;;1.10;99.90;;;;;;5066072;28;20045;-84